createdAt,value
2018-08-17T00:00:35.283Z,9.93
2018-08-17T00:03:04.104Z,11.17
2018-08-17T00:05:32.852Z,7.73
2018-08-17T00:08:01.526Z,7.70
2018-08-17T00:10:30.218Z,10.27
2018-08-17T00:12:58.982Z,8.50
2018-08-17T00:15:27.653Z,7.87
2018-08-17T00:17:56.437Z,10.90
2018-08-17T00:20:25.144Z,7.57
2018-08-17T00:22:53.829Z,9.77
2018-08-17T00:25:22.579Z,8.47
2018-08-17T00:27:51.589Z,8.30
2018-08-17T00:30:20.383Z,8.20
2018-08-17T00:32:49.218Z,10.07
2018-08-17T00:35:17.927Z,7.77
2018-08-17T00:37:46.683Z,8.77
2018-08-17T00:40:15.380Z,10.93
2018-08-17T00:42:44.089Z,7.70
2018-08-17T00:45:12.827Z,10.30
2018-08-17T00:47:41.605Z,10.00
2018-08-17T00:50:10.345Z,8.67
2018-08-17T00:52:39.019Z,7.30
2018-08-17T00:55:07.956Z,7.30
2018-08-17T00:57:36.953Z,8.23
2018-08-17T01:00:06.787Z,10.47
2018-08-17T01:02:35.778Z,7.67
2018-08-17T01:05:04.597Z,8.10
2018-08-17T01:07:33.397Z,11.97
2018-08-17T01:10:02.206Z,9.67
2018-08-17T01:12:30.978Z,7.80
2018-08-17T01:14:59.658Z,7.73
2018-08-17T01:17:28.501Z,10.50
2018-08-17T01:19:57.238Z,9.70
2018-08-17T01:22:25.904Z,7.80
2018-08-17T01:24:54.611Z,9.27
2018-08-17T01:27:23.264Z,11.00
2018-08-17T01:29:52.242Z,7.90
2018-08-17T01:32:21.054Z,8.80
2018-08-17T01:34:49.744Z,14.60
2018-08-17T01:37:18.430Z,9.67
2018-08-17T01:39:47.137Z,10.63
2018-08-17T01:42:15.915Z,8.13
2018-08-17T01:44:44.650Z,9.37
2018-08-17T01:47:13.398Z,9.33
2018-08-17T01:49:42.120Z,10.10
2018-08-17T01:52:10.828Z,8.83
2018-08-17T01:54:39.457Z,10.37
2018-08-17T01:57:08.214Z,9.27
2018-08-17T01:59:37.022Z,8.20
2018-08-17T02:02:05.799Z,8.67
2018-08-17T02:04:34.477Z,9.47
2018-08-17T02:07:03.182Z,9.10
2018-08-17T02:09:31.905Z,11.33
2018-08-17T02:12:00.618Z,13.73
2018-08-17T02:14:29.284Z,11.10
2018-08-17T02:16:57.981Z,10.40
2018-08-17T02:19:26.704Z,13.23
2018-08-17T02:21:55.391Z,9.83
2018-08-17T02:24:24.105Z,11.50
2018-08-17T02:26:52.759Z,12.47
2018-08-17T02:29:21.443Z,12.83
2018-08-17T02:31:50.226Z,11.83
2018-08-17T02:34:19.111Z,10.53
2018-08-17T02:36:47.811Z,10.27
2018-08-17T02:39:16.554Z,10.67
2018-08-17T02:41:46.780Z,15.57
2018-08-17T02:44:15.457Z,14.60
2018-08-17T02:46:44.197Z,13.47
2018-08-17T02:49:12.877Z,12.53
2018-08-17T02:51:41.544Z,9.83
2018-08-17T02:54:10.313Z,10.43
2018-08-17T02:56:39.017Z,11.43
2018-08-17T02:59:07.709Z,12.73
2018-08-17T03:01:36.380Z,13.57
2018-08-17T03:04:05.092Z,10.50
2018-08-17T03:06:33.764Z,11.57
2018-08-17T03:09:02.461Z,13.80
2018-08-17T03:11:31.161Z,10.40
2018-08-17T03:14:00.051Z,17.03
2018-08-17T03:16:28.704Z,11.30
2018-08-17T03:18:57.430Z,10.20
2018-08-17T03:21:26.334Z,11.07
2018-08-17T03:23:55.177Z,10.97
2018-08-17T03:26:24.092Z,11.10
2018-08-17T03:28:52.968Z,13.80
2018-08-17T03:31:21.899Z,13.07
2018-08-17T03:33:50.701Z,13.80
2018-08-17T03:36:19.669Z,14.37
2018-08-17T03:38:48.406Z,11.50
2018-08-17T03:41:17.219Z,13.53
2018-08-17T03:43:45.885Z,10.33
2018-08-17T03:46:14.621Z,12.77
2018-08-17T03:48:43.309Z,13.70
2018-08-17T03:51:12.086Z,14.43
2018-08-17T03:53:40.848Z,11.67
2018-08-17T03:56:09.537Z,13.87
2018-08-17T03:58:38.250Z,10.87
2018-08-17T04:01:06.989Z,17.33
2018-08-17T04:03:35.693Z,11.00
2018-08-17T04:06:04.532Z,11.17
2018-08-17T04:08:33.193Z,9.70
2018-08-17T04:11:01.954Z,12.97
2018-08-17T04:13:30.612Z,14.13
2018-08-17T04:15:59.349Z,10.77
2018-08-17T04:18:28.100Z,11.50
2018-08-17T04:20:56.818Z,10.73
2018-08-17T04:23:25.479Z,11.60
2018-08-17T04:25:54.249Z,10.40
2018-08-17T04:28:22.938Z,11.10
2018-08-17T04:30:51.668Z,12.17
2018-08-17T04:33:20.410Z,15.00
2018-08-17T04:35:49.162Z,10.27
2018-08-17T04:38:17.868Z,11.40
2018-08-17T04:40:46.592Z,14.13
2018-08-17T04:43:15.249Z,11.07
2018-08-17T04:45:44.009Z,15.77
2018-08-17T04:48:12.669Z,13.90
2018-08-17T04:50:41.523Z,14.27
2018-08-17T04:53:10.253Z,16.30
2018-08-17T04:55:38.924Z,24.50
2018-08-17T04:58:07.657Z,15.13
2018-08-17T05:00:36.366Z,15.23
2018-08-17T05:03:05.188Z,13.43
2018-08-17T05:05:33.866Z,30.37
2018-08-17T05:08:02.529Z,12.30
2018-08-17T05:10:31.265Z,19.50
2018-08-17T05:13:00.054Z,12.87
2018-08-17T05:15:28.710Z,13.77
2018-08-17T05:17:57.372Z,10.77
2018-08-17T05:20:26.109Z,13.03
2018-08-17T05:25:24.422Z,12.07
2018-08-17T05:27:53.106Z,17.93
2018-08-17T05:30:21.814Z,14.47
2018-08-17T05:32:50.577Z,15.17
2018-08-17T05:35:19.302Z,12.57
2018-08-17T05:37:48.028Z,13.00
2018-08-17T05:40:16.738Z,11.53
2018-08-17T05:42:45.431Z,16.37
2018-08-17T05:45:14.134Z,13.60
2018-08-17T05:47:42.809Z,13.27
2018-08-17T05:50:12.709Z,12.10
2018-08-17T05:52:41.358Z,11.13
2018-08-17T05:55:10.061Z,13.87
2018-08-17T05:57:38.807Z,10.37
2018-08-17T06:00:09.358Z,11.60
2018-08-17T06:02:38.055Z,12.07
2018-08-17T06:05:07.959Z,13.03
2018-08-17T06:07:36.936Z,14.23
2018-08-17T06:10:07.318Z,13.43
2018-08-17T06:12:36.083Z,16.53
2018-08-17T06:15:05.931Z,15.97
2018-08-17T06:17:34.684Z,12.67
2018-08-17T06:20:03.852Z,15.13
2018-08-17T06:22:32.541Z,15.80
2018-08-17T06:25:01.239Z,14.37
2018-08-17T06:27:29.921Z,14.43
2018-08-17T06:29:58.622Z,15.90
2018-08-17T06:32:27.310Z,13.03
2018-08-17T06:34:56.652Z,19.53
2018-08-17T06:37:26.281Z,20.10
2018-08-17T06:39:54.924Z,23.60
2018-08-17T06:42:23.693Z,18.13
2018-08-17T06:44:52.429Z,19.93
2018-08-17T06:47:22.199Z,22.83
2018-08-17T06:49:51.720Z,17.97
2018-08-17T06:52:20.565Z,13.23
2018-08-17T06:54:49.229Z,12.60
2018-08-17T06:57:17.991Z,8.90
2018-08-17T06:59:47.687Z,10.73
2018-08-17T07:02:16.623Z,10.10
2018-08-17T07:04:45.451Z,11.70
2018-08-17T07:07:15.037Z,11.00
2018-08-17T07:09:43.716Z,11.13
2018-08-17T07:12:12.511Z,8.57
2018-08-17T07:14:41.193Z,9.27
2018-08-17T07:17:10.224Z,9.27
2018-08-17T07:19:39.018Z,13.07
2018-08-17T07:22:08.148Z,10.13
2018-08-17T07:24:37.156Z,9.50
2018-08-17T07:27:05.927Z,9.73
2018-08-17T07:29:34.732Z,13.70
2018-08-17T07:32:03.490Z,12.13
2018-08-17T07:34:32.596Z,13.93
2018-08-17T07:37:01.312Z,8.80
2018-08-17T07:39:29.953Z,11.27
2018-08-17T07:41:58.670Z,8.20
2018-08-17T07:44:27.341Z,13.23
2018-08-17T07:46:56.122Z,7.77
2018-08-17T07:49:24.833Z,8.53
2018-08-17T07:51:53.505Z,7.77
2018-08-17T07:54:22.215Z,12.53
2018-08-17T07:56:50.870Z,13.80
2018-08-17T07:59:19.582Z,11.47
2018-08-17T08:01:48.421Z,11.37
2018-08-17T08:04:17.122Z,9.20
2018-08-17T08:06:45.950Z,8.77
2018-08-17T08:09:14.657Z,11.00
2018-08-17T08:11:43.475Z,7.07
2018-08-17T08:14:12.497Z,8.97
2018-08-17T08:16:41.223Z,11.03
2018-08-17T08:19:13.984Z,9.80
2018-08-17T08:21:45.083Z,9.83
2018-08-17T08:24:13.879Z,7.30
2018-08-17T08:26:42.569Z,8.60
2018-08-17T08:29:11.352Z,8.33
2018-08-17T08:31:40.019Z,12.30
2018-08-17T08:34:08.764Z,11.60
2018-08-17T08:36:37.435Z,11.65
2018-08-17T08:39:09.350Z,9.43
2018-08-17T08:41:38.117Z,10.00
2018-08-17T08:45:10.251Z,6.78
2018-08-17T08:47:39.060Z,11.93
2018-08-17T08:50:07.794Z,9.25
2018-08-17T08:52:36.563Z,8.83
2018-08-17T08:55:06.992Z,12.40
2018-08-17T08:57:35.904Z,15.03
2018-08-17T09:00:05.690Z,10.07
2018-08-17T09:02:34.431Z,8.95
2018-08-17T09:05:03.147Z,11.27
2018-08-17T09:07:31.905Z,9.37
2018-08-17T09:10:00.586Z,8.10
2018-08-17T09:12:29.308Z,8.38
2018-08-17T09:14:58.082Z,11.60
2018-08-17T09:17:26.875Z,11.20
2018-08-17T09:19:55.597Z,7.97
2018-08-17T09:22:24.367Z,10.43
2018-08-17T09:24:53.124Z,9.15
2018-08-17T09:27:21.837Z,10.98
2018-08-17T09:29:50.555Z,11.97
2018-08-17T09:32:19.236Z,8.25
2018-08-17T09:34:47.954Z,11.63
2018-08-17T09:37:17.505Z,11.30
2018-08-17T09:40:49.554Z,11.53
2018-08-17T09:43:18.682Z,6.78
2018-08-17T09:45:48.064Z,11.45
2018-08-17T09:48:16.822Z,10.28
2018-08-17T09:50:45.504Z,9.05
2018-08-17T09:53:14.214Z,10.40
2018-08-17T09:55:42.910Z,10.10
2018-08-17T09:58:11.599Z,7.40
2018-08-17T10:00:40.395Z,5.95
2018-08-17T10:03:14.275Z,9.85
2018-08-17T10:05:43.851Z,12.23
2018-08-17T10:09:21.276Z,9.05
2018-08-17T10:11:51.432Z,10.43
2018-08-17T10:14:20.988Z,7.58
2018-08-17T10:16:50.142Z,10.58
2018-08-17T10:19:18.879Z,11.08
2018-08-17T10:21:53.913Z,9.75
2018-08-17T10:24:23.108Z,9.40
2018-08-17T10:26:52.901Z,7.50
2018-08-17T10:29:22.409Z,7.00
2018-08-17T10:31:54.130Z,6.42
2018-08-17T10:34:25.783Z,7.87
2018-08-17T10:36:56.085Z,6.20
2018-08-17T10:39:26.591Z,8.38
2018-08-17T10:41:56.607Z,7.28
2018-08-17T10:44:26.789Z,5.00
2018-08-17T10:46:57.246Z,6.83
2018-08-17T10:49:28.584Z,7.03
2018-08-17T10:52:00.192Z,6.83
2018-08-17T10:54:29.638Z,7.05
2018-08-17T10:57:00.616Z,14.10
2018-08-17T10:59:30.434Z,13.70
2018-08-17T11:02:00.578Z,25.40
2018-08-17T11:04:30.840Z,18.40
2018-08-17T11:07:00.603Z,17.50
2018-08-17T11:09:33.658Z,13.48
2018-08-17T11:12:04.633Z,19.80
2018-08-17T11:14:34.919Z,8.20
2018-08-17T11:17:04.888Z,19.57
2018-08-17T11:19:35.489Z,14.53
2018-08-17T11:22:04.722Z,22.42
2018-08-17T11:24:33.491Z,20.00
2018-08-17T11:27:02.315Z,29.72
2018-08-17T11:29:31.032Z,12.30
2018-08-17T11:32:00.154Z,26.83
2018-08-17T11:34:29.441Z,17.27
2018-08-17T11:36:58.177Z,13.13
2018-08-17T11:39:27.308Z,17.37
2018-08-17T11:41:56.030Z,16.32
2018-08-17T11:44:24.897Z,11.60
2018-08-17T11:46:53.731Z,14.47
2018-08-17T11:49:22.615Z,14.80
2018-08-17T11:51:51.320Z,8.83
2018-08-17T11:54:20.107Z,13.07
2018-08-17T11:56:48.905Z,10.20
2018-08-17T11:59:17.623Z,10.30
2018-08-17T12:01:46.428Z,9.37
2018-08-17T12:04:15.139Z,7.23
2018-08-17T12:06:43.844Z,6.53
2018-08-17T12:09:12.597Z,11.13
2018-08-17T12:11:41.313Z,10.07
2018-08-17T12:14:10.090Z,12.27
2018-08-17T12:16:39.308Z,14.17
2018-08-17T12:19:08.028Z,13.87
2018-08-17T12:21:39.334Z,12.83
2018-08-17T12:24:08.133Z,10.73
2018-08-17T12:26:41.985Z,10.48
2018-08-17T12:29:10.753Z,15.30
2018-08-17T12:31:39.476Z,18.53
2018-08-17T12:34:08.190Z,17.70
2018-08-17T12:36:37.025Z,12.50
2018-08-17T12:39:09.446Z,10.43
2018-08-17T12:41:38.155Z,11.93
2018-08-17T12:44:06.957Z,9.10
2018-08-17T12:46:35.732Z,7.03
2018-08-17T12:49:04.449Z,9.65
2018-08-17T12:51:33.203Z,11.08
2018-08-17T12:54:01.963Z,13.25
2018-08-17T12:56:30.683Z,12.65
2018-08-17T12:58:59.330Z,8.68
2018-08-17T13:01:28.121Z,9.93
2018-08-17T13:03:56.873Z,9.73
2018-08-17T13:06:25.519Z,11.12
2018-08-17T13:08:54.474Z,10.72
2018-08-17T13:11:30.071Z,10.58
2018-08-17T13:14:04.681Z,13.38
2018-08-17T13:16:35.236Z,8.30
2018-08-17T13:19:03.962Z,10.23
2018-08-17T13:21:32.687Z,8.80
2018-08-17T13:24:01.791Z,8.75
2018-08-17T13:26:30.508Z,10.75
2018-08-17T13:28:59.430Z,13.53
2018-08-17T13:31:28.189Z,7.40
2018-08-17T13:33:56.890Z,23.33
2018-08-17T13:36:25.743Z,7.77
2018-08-17T13:38:54.580Z,13.43
2018-08-17T13:41:23.557Z,6.50
2018-08-17T13:43:52.323Z,7.40
2018-08-17T13:46:21.076Z,8.77
2018-08-17T13:48:49.874Z,11.00
2018-08-17T13:51:18.697Z,6.60
2018-08-17T13:53:47.408Z,8.67
2018-08-17T13:56:16.097Z,8.80
2018-08-17T13:58:44.825Z,7.60
2018-08-17T14:01:13.516Z,7.43
2018-08-17T14:03:42.241Z,7.40
2018-08-17T14:06:10.960Z,6.60
2018-08-17T14:08:39.641Z,7.70
2018-08-17T14:11:08.361Z,6.28
2018-08-17T14:13:37.701Z,5.03
2018-08-17T14:16:06.620Z,5.40
2018-08-17T14:18:35.338Z,8.05
2018-08-17T14:21:04.069Z,6.47
2018-08-17T14:23:32.767Z,5.62
2018-08-17T14:26:01.458Z,6.70
2018-08-17T14:28:30.207Z,5.22
2018-08-17T14:30:58.937Z,4.85
2018-08-17T14:33:27.606Z,6.80
2018-08-17T14:35:56.256Z,5.03
2018-08-17T14:38:34.756Z,6.30
2018-08-17T14:41:04.260Z,4.85
2018-08-17T14:43:33.416Z,5.85
2018-08-17T14:46:02.259Z,4.55
2018-08-17T14:48:31.216Z,7.08
2018-08-17T14:51:00.032Z,5.25
2018-08-17T14:53:28.720Z,7.12
2018-08-17T14:55:57.492Z,5.55
2018-08-17T14:58:26.229Z,5.33
2018-08-17T15:00:55.039Z,6.05
2018-08-17T15:03:23.801Z,3.80
2018-08-17T15:05:52.543Z,5.65
2018-08-17T15:08:21.317Z,4.85
2018-08-17T15:10:50.060Z,4.35
2018-08-17T15:13:18.881Z,6.50
2018-08-17T15:15:47.681Z,8.15
2018-08-17T15:18:16.432Z,7.33
2018-08-17T15:20:45.145Z,5.12
2018-08-17T15:23:13.941Z,7.30
2018-08-17T15:25:42.675Z,7.00
2018-08-17T15:28:11.391Z,4.50
2018-08-17T15:30:40.089Z,6.87
2018-08-17T15:33:08.852Z,4.08
2018-08-17T15:35:37.654Z,8.55
2018-08-17T15:38:06.471Z,4.35
2018-08-17T15:40:35.194Z,4.70
2018-08-17T15:43:10.049Z,7.33
2018-08-17T15:45:38.972Z,9.20
2018-08-17T15:48:07.817Z,10.73
2018-08-17T15:50:36.540Z,9.87
2018-08-17T15:53:05.232Z,12.17
2018-08-17T15:55:33.968Z,14.27
2018-08-17T15:58:02.822Z,10.43
2018-08-17T16:00:31.741Z,9.47
2018-08-17T16:03:00.449Z,11.45
2018-08-17T16:05:29.196Z,7.47
2018-08-17T16:07:57.901Z,6.83
2018-08-17T16:10:27.425Z,5.42
2018-08-17T16:12:56.254Z,4.53
2018-08-17T16:15:25.062Z,9.68
2018-08-17T16:17:53.796Z,7.80
2018-08-17T16:20:22.511Z,6.92
2018-08-17T16:22:51.224Z,12.23
2018-08-17T16:25:19.993Z,7.33
2018-08-17T16:27:48.743Z,8.88
2018-08-17T16:30:17.593Z,7.28
2018-08-17T16:32:46.365Z,8.53
2018-08-17T16:35:15.206Z,6.92
2018-08-17T16:37:47.147Z,7.67
2018-08-17T16:40:16.168Z,4.20
2018-08-17T16:42:44.960Z,7.67
2018-08-17T16:45:13.791Z,7.65
2018-08-17T16:47:42.550Z,8.25
2018-08-17T16:50:11.392Z,7.17
2018-08-17T16:52:40.611Z,10.23
2018-08-17T16:55:09.370Z,7.25
2018-08-17T16:57:38.403Z,5.87
2018-08-17T17:00:09.042Z,9.83
2018-08-17T17:02:37.828Z,7.55
2018-08-17T17:05:07.501Z,12.78
2018-08-17T17:07:36.197Z,10.03
2018-08-17T17:10:06.021Z,9.00
2018-08-17T17:12:34.743Z,8.30
2018-08-17T17:15:11.655Z,11.33
2018-08-17T17:17:40.387Z,10.60
2018-08-17T17:20:09.364Z,15.97
2018-08-17T17:22:38.145Z,11.33
2018-08-17T17:25:12.170Z,14.80
2018-08-17T17:27:41.025Z,11.07
2018-08-17T17:30:09.777Z,11.97
2018-08-17T17:32:38.519Z,14.63
2018-08-17T17:35:07.266Z,16.97
2018-08-17T17:37:36.071Z,17.83
2018-08-17T17:40:05.805Z,8.57
2018-08-17T17:42:34.578Z,17.23
2018-08-17T17:45:03.370Z,20.33
2018-08-17T17:47:32.123Z,10.53
2018-08-17T17:50:00.945Z,11.07
2018-08-17T17:52:29.724Z,10.17
2018-08-17T17:54:58.450Z,7.80
2018-08-17T17:57:27.230Z,16.10
2018-08-17T17:59:57.678Z,12.83
2018-08-17T18:02:27.562Z,16.13
2018-08-17T18:04:56.254Z,20.60
2018-08-17T18:07:33.438Z,21.60
2018-08-17T18:10:03.692Z,24.30
2018-08-17T18:12:32.522Z,20.30
2018-08-17T18:15:01.260Z,19.00
2018-08-17T18:17:30.080Z,30.03
2018-08-17T18:19:58.797Z,21.33
2018-08-17T18:22:31.314Z,28.60
2018-08-17T18:25:05.374Z,29.80
2018-08-17T18:27:34.122Z,31.93
2018-08-17T18:30:03.874Z,15.97
2018-08-17T18:32:32.546Z,14.67
2018-08-17T18:35:01.373Z,14.80
2018-08-17T18:37:30.080Z,13.47
2018-08-17T18:39:58.790Z,11.50
2018-08-17T18:42:27.528Z,15.47
2018-08-17T18:44:56.239Z,12.30
2018-08-17T18:47:24.952Z,20.37
2018-08-17T18:49:53.718Z,10.93
2018-08-17T18:52:22.512Z,11.53
2018-08-17T18:54:51.307Z,10.83
2018-08-17T18:57:20.482Z,19.43
2018-08-17T18:59:49.239Z,15.33
2018-08-17T19:02:17.971Z,17.03
2018-08-17T19:04:46.909Z,14.43
2018-08-17T19:08:19.707Z,14.93
2018-08-17T19:10:48.513Z,18.77
2018-08-17T19:13:17.299Z,17.77
2018-08-17T19:15:50.309Z,14.23
2018-08-17T19:18:19.137Z,15.53
2018-08-17T19:20:47.870Z,20.53
2018-08-17T19:23:16.738Z,13.60
2018-08-17T19:25:45.477Z,13.70
2018-08-17T19:28:14.265Z,14.17
2018-08-17T19:30:42.987Z,14.03
2018-08-17T19:33:12.878Z,11.93
2018-08-17T19:35:46.871Z,10.27
2018-08-17T19:38:15.653Z,14.27
2018-08-17T19:40:44.345Z,12.63
2018-08-17T19:43:12.993Z,17.23
2018-08-17T19:45:41.741Z,18.13
2018-08-17T19:48:10.525Z,14.50
2018-08-17T19:50:39.272Z,16.83
2018-08-17T19:53:08.003Z,14.37
2018-08-17T19:55:36.770Z,16.50
2018-08-17T19:58:05.673Z,14.57
2018-08-17T20:00:34.396Z,15.37
2018-08-17T20:03:03.091Z,14.50
2018-08-17T20:05:31.861Z,27.37
2018-08-17T20:08:00.594Z,15.97
2018-08-17T20:10:29.622Z,21.67
2018-08-17T20:12:58.359Z,18.47
2018-08-17T20:15:27.118Z,13.13
2018-08-17T20:17:55.928Z,22.07
2018-08-17T20:20:24.635Z,21.10
2018-08-17T20:22:58.193Z,17.57
2018-08-17T20:25:26.990Z,16.57
2018-08-17T20:27:55.675Z,16.43
2018-08-17T20:30:25.288Z,13.57
2018-08-17T20:32:54.625Z,19.67
2018-08-17T20:35:23.380Z,15.70
2018-08-17T20:37:53.461Z,17.90
2018-08-17T20:40:22.354Z,18.93
2018-08-17T20:42:51.158Z,14.93
2018-08-17T20:45:20.457Z,11.47
2018-08-17T20:47:49.201Z,17.50
2018-08-17T20:50:19.298Z,12.20
2018-08-17T20:52:53.471Z,17.50
2018-08-17T20:55:22.256Z,14.67
2018-08-17T20:57:52.874Z,18.50
2018-08-17T21:00:22.768Z,15.77
2018-08-17T21:02:51.550Z,14.13
2018-08-17T21:05:20.276Z,14.87
2018-08-17T21:07:49.734Z,13.43
2018-08-17T21:10:18.578Z,12.80
2018-08-17T21:12:48.012Z,12.80
2018-08-17T21:15:17.038Z,15.40
2018-08-17T21:17:45.775Z,18.73
2018-08-17T21:20:14.525Z,14.80
2018-08-17T21:22:43.327Z,16.50
2018-08-17T21:25:12.115Z,14.00
2018-08-17T21:27:40.807Z,17.80
2018-08-17T21:30:10.011Z,14.40
2018-08-17T21:32:38.745Z,18.27
2018-08-17T21:35:08.702Z,17.17
2018-08-17T21:37:37.798Z,18.93
2018-08-17T21:40:13.181Z,15.13
2018-08-17T21:42:41.931Z,20.43
2018-08-17T21:45:10.624Z,16.23
2018-08-17T21:47:39.421Z,19.93
2018-08-17T21:50:12.251Z,17.37
2018-08-17T21:52:41.024Z,17.90
2018-08-17T21:55:09.779Z,18.37
2018-08-17T21:57:38.598Z,16.17
2018-08-17T22:00:11.220Z,14.70
2018-08-17T22:02:40.025Z,16.80
2018-08-17T22:05:14.444Z,19.50
2018-08-17T22:07:43.215Z,15.43
2018-08-17T22:10:11.982Z,19.57
2018-08-17T22:12:40.707Z,16.27
2018-08-17T22:15:09.467Z,15.20
2018-08-17T22:17:40.367Z,16.60
2018-08-17T22:20:10.327Z,18.80
2018-08-17T22:22:39.219Z,14.27
2018-08-17T22:25:13.157Z,17.43
2018-08-17T22:27:41.879Z,13.13
2018-08-17T22:30:18.990Z,15.77
2018-08-17T22:32:47.734Z,14.13
2018-08-17T22:35:16.684Z,16.50
2018-08-17T22:37:45.399Z,17.37
2018-08-17T22:40:15.088Z,18.70
2018-08-17T22:42:45.328Z,13.40
2018-08-17T22:45:14.003Z,14.80
2018-08-17T22:47:42.756Z,14.07
2018-08-17T22:50:11.476Z,15.10
2018-08-17T22:52:40.331Z,17.80
2018-08-17T22:55:09.984Z,16.27
2018-08-17T22:57:38.723Z,17.27
2018-08-17T23:00:19.483Z,16.37
2018-08-17T23:02:49.516Z,18.03
2018-08-17T23:05:19.678Z,15.37
2018-08-17T23:07:48.435Z,19.97
2018-08-17T23:10:18.926Z,23.73
2018-08-17T23:12:48.634Z,17.07
2018-08-17T23:15:17.424Z,17.23
2018-08-17T23:17:53.358Z,17.93
2018-08-17T23:20:27.194Z,16.13
2018-08-17T23:22:58.034Z,15.47
2018-08-17T23:25:26.789Z,17.70
2018-08-17T23:27:55.498Z,18.43
2018-08-17T23:30:24.228Z,15.33
2018-08-17T23:32:52.995Z,15.03
2018-08-17T23:35:21.789Z,17.57
2018-08-17T23:37:50.587Z,17.60
2018-08-17T23:40:19.326Z,17.33
2018-08-17T23:42:48.067Z,16.93
2018-08-17T23:45:17.900Z,15.60
2018-08-17T23:47:46.678Z,17.50
2018-08-17T23:50:16.116Z,14.73
2018-08-17T23:52:45.005Z,15.33
2018-08-17T23:55:15.671Z,14.30
2018-08-17T23:57:44.517Z,17.67
